Time;durP1;ratioP1;P1;durP2;ratioP2;P2;SDS_P1;SDS_P2;PMS_P1;PMS_P2;Temp;Humidity;BMP_temperature;BMP_pressure;BME280_temperature;BME280_humidity;BME280_pressure;Samples;Min_cycle;Max_cycle;Signal;HPM_P1;HPM_P2
2021/08/04 00:01:05;;;;;;;3.23;1.53;;;;;;;23.02;75.58;97824.06;5058704;28;20202;-66
2021/08/04 00:03:32;;;;;;;2.17;1.47;;;;;;;23.30;74.23;97822.50;5049854;28;20225;-68
2021/08/04 00:06:01;;;;;;;4.10;1.60;;;;;;;23.24;73.53;97827.16;5049480;28;20198;-66
2021/08/04 00:08:28;;;;;;;5.30;1.60;;;;;;;22.93;74.60;97825.75;5055621;28;20225;-67
2021/08/04 00:10:55;;;;;;;2.03;1.43;;;;;;;23.24;73.40;97823.63;5054513;28;20220;-67
2021/08/04 00:13:23;;;;;;;5.37;1.50;;;;;;;23.10;75.29;97826.16;5053701;28;20261;-67
2021/08/04 00:15:50;;;;;;;3.17;1.40;;;;;;;23.15;74.87;97817.16;5054131;28;20226;-66
2021/08/04 00:18:18;;;;;;;3.27;1.50;;;;;;;23.14;75.68;97824.50;5049039;28;20205;-66
2021/08/04 00:20:45;;;;;;;3.20;1.47;;;;;;;23.02;75.11;97825.97;5059985;28;20211;-67
2021/08/04 00:23:13;;;;;;;2.37;1.40;;;;;;;22.82;75.77;97813.34;5060898;28;20228;-66
2021/08/04 00:25:41;;;;;;;1.90;1.60;;;;;;;23.11;75.23;97822.34;5051333;28;20571;-67
2021/08/04 00:28:08;;;;;;;3.60;1.73;;;;;;;23.31;74.16;97824.13;5058539;28;20205;-67
2021/08/04 00:30:35;;;;;;;1.97;1.50;;;;;;;22.88;76.84;97820.34;5055875;28;20564;-67
2021/08/04 00:33:03;;;;;;;2.83;1.30;;;;;;;22.97;74.99;97809.66;5047755;28;20234;-66
2021/08/04 00:35:30;;;;;;;2.40;1.47;;;;;;;23.12;74.32;97815.00;5054095;28;20224;-67
2021/08/04 00:37:57;;;;;;;2.00;1.50;;;;;;;22.79;75.98;97813.88;5060275;28;20215;-67
2021/08/04 00:40:26;;;;;;;1.87;1.40;;;;;;;23.11;74.74;97818.81;5052528;28;20228;-67
2021/08/04 00:42:53;;;;;;;3.63;1.60;;;;;;;23.07;76.89;97815.84;5055248;28;20226;-67
2021/08/04 00:45:20;;;;;;;2.20;1.80;;;;;;;23.12;75.24;97815.81;5062849;28;20558;-67
2021/08/04 00:47:48;;;;;;;3.73;1.97;;;;;;;23.03;75.33;97808.53;5048472;28;20206;-67
2021/08/04 00:50:15;;;;;;;3.30;1.70;;;;;;;22.77;74.46;97817.97;5059195;28;20194;-68
2021/08/04 00:52:43;;;;;;;7.00;1.73;;;;;;;22.74;74.64;97821.25;5042645;28;20560;-67
2021/08/04 00:55:11;;;;;;;4.17;1.53;;;;;;;23.00;73.56;97820.00;5045471;28;20248;-67
2021/08/04 00:57:39;;;;;;;1.40;1.27;;;;;;;23.32;71.19;97820.28;5057482;28;20205;-67
2021/08/04 01:00:08;;;;;;;2.03;1.53;;;;;;;22.85;72.03;97814.66;5048975;28;20203;-66
2021/08/04 01:02:40;;;;;;;3.67;1.87;;;;;;;22.81;72.56;97817.13;5059845;28;20593;-66
2021/08/04 01:05:10;;;;;;;3.07;1.50;;;;;;;22.95;72.42;97817.31;5052839;28;20204;-67
2021/08/04 01:07:41;;;;;;;2.20;1.30;;;;;;;22.99;71.24;97815.63;5053268;28;20233;-68
2021/08/04 01:10:11;;;;;;;2.77;1.40;;;;;;;23.07;70.87;97806.88;5066438;28;20585;-67
2021/08/04 01:12:50;;;;;;;1.40;1.30;;;;;;;23.14;70.21;97807.34;5061879;28;20230;-67
2021/08/04 01:15:18;;;;;;;2.00;1.57;;;;;;;23.36;69.24;97805.00;5053175;28;20214;-67
2021/08/04 01:17:49;;;;;;;2.67;1.60;;;;;;;23.08;70.34;97797.59;5052309;28;20222;-67
2021/08/04 01:20:19;;;;;;;2.87;1.73;;;;;;;23.50;68.11;97795.03;5051902;28;20217;-67
2021/08/04 01:22:56;;;;;;;2.70;1.50;;;;;;;23.37;67.95;97784.84;5059527;28;20233;-67
2021/08/04 01:25:30;;;;;;;2.07;1.50;;;;;;;23.42;67.50;97793.75;5060406;28;20198;-66
2021/08/04 01:28:20;;;;;;;2.27;1.70;;;;;;;23.58;65.69;97791.69;5052643;28;20223;-67
2021/08/04 01:30:49;;;;;;;2.70;1.63;;;;;;;23.51;65.87;97797.47;5051144;28;20206;-66
2021/08/04 01:33:17;;;;;;;2.33;1.40;;;;;;;23.59;65.39;97799.59;5050418;28;20218;-68
2021/08/04 01:35:46;;;;;;;2.17;1.37;;;;;;;23.38;66.08;97808.25;5051478;28;20694;-67
2021/08/04 01:38:14;;;;;;;2.23;1.73;;;;;;;23.63;65.29;97813.44;5060867;28;20209;-67
2021/08/04 01:40:42;;;;;;;2.03;1.33;;;;;;;23.30;65.52;97817.06;5051971;28;20206;-67
2021/08/04 01:43:12;;;;;;;1.50;1.30;;;;;;;23.56;63.84;97821.94;5058863;28;20231;-67
2021/08/04 01:45:40;;;;;;;1.53;1.23;;;;;;;23.35;65.56;97808.84;5055597;28;20248;-67
2021/08/04 01:48:08;;;;;;;2.87;1.50;;;;;;;23.11;66.02;97805.19;5063496;28;20605;-67
2021/08/04 01:50:36;;;;;;;1.50;1.37;;;;;;;23.58;63.70;97797.97;5060113;28;20198;-67
2021/08/04 01:53:04;;;;;;;4.73;1.70;;;;;;;23.55;62.58;97803.16;5045146;28;20228;-67
2021/08/04 01:55:31;;;;;;;1.73;1.33;;;;;;;23.69;61.53;97807.66;5058896;28;20229;-67
2021/08/04 01:57:59;;;;;;;2.93;1.40;;;;;;;23.53;61.55;97802.63;5052871;28;20209;-67
2021/08/04 02:00:27;;;;;;;2.93;1.30;;;;;;;23.08;62.03;97806.59;5052160;28;20209;-67
2021/08/04 02:02:55;;;;;;;3.27;1.43;;;;;;;23.01;62.89;97803.34;5053184;28;20228;-67
2021/08/04 02:05:22;;;;;;;2.10;1.20;;;;;;;23.36;62.32;97800.34;5052428;28;20200;-66
2021/08/04 02:07:59;;;;;;;2.73;1.40;;;;;;;23.06;64.63;97805.25;5050264;28;20635;-67
2021/08/04 02:10:30;;;;;;;4.23;1.70;;;;;;;23.02;66.31;97798.75;5047508;28;20198;-67
2021/08/04 02:13:02;;;;;;;2.03;1.30;;;;;;;23.08;64.51;97803.03;5051629;28;20248;-68
2021/08/04 02:15:33;;;;;;;1.93;1.50;;;;;;;22.35;67.00;97795.94;5051776;28;20227;-67
2021/08/04 02:18:04;;;;;;;2.00;1.40;;;;;;;23.07;63.14;97809.59;5051947;28;20605;-67
2021/08/04 02:20:37;;;;;;;4.70;1.50;;;;;;;22.93;64.50;97809.44;5054884;28;20205;-68
2021/08/04 02:23:07;;;;;;;2.00;1.30;;;;;;;22.85;64.16;97814.66;5042999;28;20747;-67
2021/08/04 02:25:38;;;;;;;2.27;1.20;;;;;;;22.97;64.20;97798.78;5050944;28;20571;-67
2021/08/04 02:28:08;;;;;;;3.60;1.70;;;;;;;22.87;63.32;97801.59;5038235;28;20198;-67
2021/08/04 02:30:39;;;;;;;2.80;1.30;;;;;;;23.01;62.34;97808.00;5048541;28;20206;-67
2021/08/04 02:33:06;;;;;;;2.43;1.60;;;;;;;23.04;61.28;97799.25;5044667;28;20243;-68
2021/08/04 02:35:34;;;;;;;2.13;1.60;;;;;;;23.13;60.51;97800.28;5055262;28;20213;-67
2021/08/04 02:38:01;;;;;;;1.63;1.20;;;;;;;23.34;59.90;97799.00;5051456;28;20206;-67
2021/08/04 02:40:29;;;;;;;3.33;1.47;;;;;;;23.46;58.93;97792.06;5055859;28;20200;-67
2021/08/04 02:42:57;;;;;;;2.60;1.50;;;;;;;22.58;65.29;97789.81;5052465;28;20706;-68
2021/08/04 02:45:24;;;;;;;2.30;1.63;;;;;;;22.45;68.45;97780.38;5058612;28;20198;-68
2021/08/04 02:47:54;;;;;;;2.00;1.50;;;;;;;22.38;70.03;97782.56;5052150;28;20678;-67
2021/08/04 02:50:21;;;;;;;2.30;1.40;;;;;;;22.90;70.42;97780.03;5049385;28;20205;-67
2021/08/04 02:52:49;;;;;;;3.13;1.47;;;;;;;22.50;71.49;97777.63;5053335;28;20233;-67
2021/08/04 02:55:18;;;;;;;2.83;1.30;;;;;;;22.46;69.91;97776.59;5060708;28;20709;-67
2021/08/04 02:57:46;;;;;;;2.13;1.43;;;;;;;22.88;68.60;97781.44;5048532;28;20206;-67
2021/08/04 03:00:13;;;;;;;2.37;1.47;;;;;;;22.29;72.23;97776.09;5059535;28;20211;-67
2021/08/04 03:02:41;;;;;;;1.70;1.40;;;;;;;22.96;66.41;97780.81;5053588;28;20230;-67
2021/08/04 03:05:11;;;;;;;3.87;1.33;;;;;;;22.90;65.54;97781.97;5055420;28;20205;-67
2021/08/04 03:07:38;;;;;;;2.00;1.37;;;;;;;22.93;65.84;97782.22;5060433;28;20197;-67
2021/08/04 03:10:06;;;;;;;2.60;1.67;;;;;;;23.35;63.77;97785.13;5066737;28;20198;-67
2021/08/04 03:12:34;;;;;;;3.07;1.50;;;;;;;23.27;65.81;97774.88;5057752;28;20304;-67
2021/08/04 03:15:01;;;;;;;2.23;1.60;;;;;;;23.26;66.17;97780.59;5043189;28;20296;-67
2021/08/04 03:17:29;;;;;;;3.37;1.73;;;;;;;23.44;63.11;97788.84;5057630;28;20542;-67
2021/08/04 03:19:56;;;;;;;2.00;1.60;;;;;;;23.39;62.71;97790.78;5050100;28;20202;-68
2021/08/04 03:22:24;;;;;;;5.03;1.57;;;;;;;23.05;66.04;97785.34;5054642;28;20220;-68
2021/08/04 03:24:52;;;;;;;4.03;1.47;;;;;;;22.74;68.58;97778.53;5054534;28;20197;-67
2021/08/04 03:27:19;;;;;;;4.17;1.60;;;;;;;22.84;64.66;97785.81;5060055;28;20201;-68
2021/08/04 03:29:46;;;;;;;2.07;1.63;;;;;;;22.93;68.87;97779.50;5058182;28;20209;-67
2021/08/04 03:32:14;;;;;;;3.33;1.40;;;;;;;23.15;67.74;97787.19;5056611;28;20221;-67
2021/08/04 03:34:41;;;;;;;1.97;1.40;;;;;;;22.72;68.95;97790.81;5056183;28;20194;-67
2021/08/04 03:37:08;;;;;;;2.93;1.57;;;;;;;22.86;71.21;97786.34;5054711;28;20221;-67
2021/08/04 03:39:37;;;;;;;1.70;1.47;;;;;;;22.87;68.33;97794.25;5053757;28;20198;-67
2021/08/04 03:42:04;;;;;;;2.17;1.60;;;;;;;22.75;67.67;97788.31;5057758;28;20230;-67
2021/08/04 03:44:33;;;;;;;2.00;1.60;;;;;;;23.01;66.40;97791.69;5052238;28;20204;-68
2021/08/04 03:47:00;;;;;;;3.23;1.83;;;;;;;22.70;71.94;97784.84;5052732;28;20297;-67
2021/08/04 03:49:27;;;;;;;4.53;1.83;;;;;;;23.02;67.46;97790.56;5057518;28;20212;-67
2021/08/04 03:51:55;;;;;;;3.03;2.03;;;;;;;23.10;65.87;97798.13;5056008;28;20221;-66
2021/08/04 03:54:22;;;;;;;2.60;1.83;;;;;;;22.66;69.88;97790.06;5054829;28;20198;-68
2021/08/04 03:56:50;;;;;;;2.90;1.87;;;;;;;22.85;70.49;97793.69;5053729;28;20227;-67
2021/08/04 03:59:18;;;;;;;2.87;1.83;;;;;;;22.94;70.71;97786.56;5054604;28;20210;-67
2021/08/04 04:01:45;;;;;;;2.53;2.10;;;;;;;23.19;69.45;97790.97;5057801;28;20761;-67
2021/08/04 04:04:12;;;;;;;2.67;2.00;;;;;;;23.20;69.16;97787.97;5054479;28;20669;-67
2021/08/04 04:06:40;;;;;;;3.40;2.10;;;;;;;22.79;71.93;97791.28;5051441;28;20198;-67
2021/08/04 04:09:07;;;;;;;3.80;1.90;;;;;;;22.97;71.31;97791.44;5053526;28;20213;-67
2021/08/04 04:11:34;;;;;;;2.47;2.07;;;;;;;22.96;70.42;97787.06;5063379;28;20217;-68
2021/08/04 04:14:03;;;;;;;6.60;2.43;;;;;;;23.05;69.65;97784.56;5054503;28;20654;-67
2021/08/04 04:16:30;;;;;;;3.80;1.97;;;;;;;23.06;68.83;97792.44;5061852;28;20774;-67
2021/08/04 04:18:58;;;;;;;4.10;2.03;;;;;;;22.96;68.62;97791.72;5054491;28;20288;-67
2021/08/04 04:21:25;;;;;;;4.37;2.40;;;;;;;22.68;70.57;97787.03;5054291;28;20202;-67
2021/08/04 04:23:52;;;;;;;2.57;1.80;;;;;;;22.71;70.59;97794.63;5053100;28;20234;-68
2021/08/04 04:26:19;;;;;;;2.47;2.07;;;;;;;22.71;69.79;97802.78;5051295;28;20205;-67
2021/08/04 04:28:47;;;;;;;2.57;1.83;;;;;;;22.76;69.54;97803.56;5055388;28;20289;-69
2021/08/04 04:31:15;;;;;;;4.70;1.80;;;;;;;22.03;75.45;97790.91;5069403;28;20197;-67
2021/08/04 04:33:43;;;;;;;4.67;1.83;;;;;;;22.61;71.38;97794.69;5057334;28;20309;-67
2021/08/04 04:36:10;;;;;;;2.27;1.70;;;;;;;22.24;73.55;97794.38;5061678;28;20229;-67
2021/08/04 04:38:37;;;;;;;2.70;1.90;;;;;;;22.15;72.24;97791.41;5056094;28;20197;-68
2021/08/04 04:41:04;;;;;;;4.57;1.80;;;;;;;22.21;73.15;97795.75;5056644;28;20197;-67
2021/08/04 04:43:32;;;;;;;5.33;1.83;;;;;;;22.64;70.98;97799.59;5059921;28;20220;-67
2021/08/04 04:45:59;;;;;;;4.00;2.07;;;;;;;22.80;70.03;97801.91;5061442;22;20259;-70
2021/08/04 04:48:28;;;;;;;1.93;1.43;;;;;;;22.78;69.67;97800.56;5045850;28;20210;-70
2021/08/04 04:50:55;;;;;;;2.90;1.80;;;;;;;22.93;68.92;97795.00;5045631;28;20266;-70
2021/08/04 04:53:22;;;;;;;4.30;2.07;;;;;;;23.05;67.92;97793.53;5044810;28;20217;-70
2021/08/04 04:55:49;;;;;;;2.83;1.80;;;;;;;23.00;67.93;97800.94;5044983;28;20241;-70
2021/08/04 04:58:17;;;;;;;2.83;1.70;;;;;;;23.03;68.81;97801.19;5040195;28;20210;-70
2021/08/04 05:00:44;;;;;;;3.27;2.00;;;;;;;22.90;69.07;97803.75;5041990;28;20589;-70
2021/08/04 05:03:11;;;;;;;6.50;2.10;;;;;;;23.29;67.55;97804.50;5044949;28;20202;-70
2021/08/04 05:05:40;;;;;;;3.00;1.73;;;;;;;23.41;66.89;97805.75;5037652;28;20249;-70
2021/08/04 05:08:07;;;;;;;4.07;1.90;;;;;;;23.32;67.00;97803.94;5038858;28;20206;-71
2021/08/04 05:10:35;;;;;;;5.37;1.70;;;;;;;23.36;65.85;97813.97;5042984;28;20206;-71
2021/08/04 05:13:02;;;;;;;2.37;1.53;;;;;;;23.60;64.17;97822.16;5037511;28;20202;-70
2021/08/04 05:15:29;;;;;;;3.90;2.13;;;;;;;23.71;63.72;97818.25;5046369;28;20229;-70
2021/08/04 05:17:57;;;;;;;3.03;1.93;;;;;;;23.81;64.29;97821.66;5047639;28;20282;-70
2021/08/04 05:20:24;;;;;;;2.90;1.77;;;;;;;23.97;62.62;97823.16;5046194;28;20202;-72
2021/08/04 05:22:53;;;;;;;4.60;1.80;;;;;;;23.64;66.20;97824.03;5038685;28;20207;-74
2021/08/04 05:25:20;;;;;;;2.90;1.83;;;;;;;23.61;66.27;97815.66;5046120;28;20226;-72
2021/08/04 05:27:47;;;;;;;2.13;1.67;;;;;;;23.47;64.90;97820.94;5046131;28;20219;-74
2021/08/04 05:30:15;;;;;;;4.07;1.80;;;;;;;22.67;66.96;97813.44;5036897;28;20209;-73
2021/08/04 05:32:42;;;;;;;1.90;1.60;;;;;;;22.91;66.56;97824.41;5041576;28;20256;-71
2021/08/04 05:35:10;;;;;;;5.33;2.10;;;;;;;23.12;64.54;97825.88;5043595;28;20231;-71
2021/08/04 05:37:38;;;;;;;1.67;1.50;;;;;;;24.61;57.41;97837.06;5044703;28;20226;-69
2021/08/04 05:40:08;;;;;;;5.27;1.90;;;;;;;24.24;58.51;97836.19;5042890;28;20209;-76
2021/08/04 05:42:35;;;;;;;3.07;1.60;;;;;;;24.96;54.73;97849.38;5036543;28;20200;-71
2021/08/04 05:45:02;;;;;;;4.60;1.97;;;;;;;24.25;57.70;97838.63;5041401;28;20232;-73
2021/08/04 05:47:30;;;;;;;5.43;1.73;;;;;;;24.92;53.42;97846.44;5032517;28;20657;-72
2021/08/04 05:49:57;;;;;;;3.03;1.80;;;;;;;24.89;52.51;97843.50;5035762;28;20299;-76
2021/08/04 05:52:24;;;;;;;2.23;1.47;;;;;;;23.85;56.29;97832.81;5030770;28;20210;-78
2021/08/04 05:54:52;;;;;;;3.00;1.90;;;;;;;24.78;53.72;97836.56;5042426;28;20781;-75
2021/08/04 05:57:20;;;;;;;4.10;2.50;;;;;;;24.34;55.98;97833.31;5044172;28;20704;-70
2021/08/04 05:59:48;;;;;;;2.30;1.70;;;;;;;24.13;56.34;97829.25;5042240;28;20216;-69
2021/08/04 06:02:15;;;;;;;8.30;2.77;;;;;;;23.97;58.19;97825.06;5044543;28;20219;-72
2021/08/04 06:04:42;;;;;;;2.77;1.80;;;;;;;24.78;53.04;97834.63;5033969;28;20233;-70
2021/08/04 06:07:10;;;;;;;4.97;1.80;;;;;;;25.17;51.94;97837.84;5039658;28;20198;-69
2021/08/04 06:09:37;;;;;;;1.67;1.47;;;;;;;25.09;50.72;97840.44;5037062;28;20216;-73
2021/08/04 06:12:06;;;;;;;2.10;1.60;;;;;;;24.58;53.82;97839.56;5017399;28;20208;-74
2021/08/04 06:14:34;;;;;;;2.47;1.53;;;;;;;25.19;52.29;97832.88;5043366;28;20615;-73
2021/08/04 06:17:02;;;;;;;3.47;1.50;;;;;;;24.73;52.35;97833.91;5032093;28;20238;-69
2021/08/04 06:19:29;;;;;;;2.50;1.40;;;;;;;24.38;52.83;97829.72;5029237;28;20206;-67
2021/08/04 06:21:58;;;;;;;2.53;1.37;;;;;;;25.55;48.49;97836.69;5036550;28;20547;-68
2021/08/04 06:24:25;;;;;;;2.43;1.60;;;;;;;25.79;49.58;97839.25;5032641;28;20300;-68
2021/08/04 06:26:54;;;;;;;5.53;1.63;;;;;;;25.54;49.59;97835.03;5028605;28;20297;-70
2021/08/04 06:29:21;;;;;;;2.43;1.50;;;;;;;26.05;46.92;97845.88;5036333;28;20281;-69
2021/08/04 06:31:50;;;;;;;3.00;1.60;;;;;;;25.89;48.23;97847.25;5036481;28;20301;-70
2021/08/04 06:34:18;;;;;;;2.00;1.33;;;;;;;26.76;45.30;97851.50;5046668;28;20292;-70
2021/08/04 06:36:45;;;;;;;3.43;1.20;;;;;;;27.12;44.00;97857.78;5035786;28;20256;-70
2021/08/04 06:39:12;;;;;;;2.30;1.67;;;;;;;26.67;43.55;97861.56;5035835;28;20214;-70
2021/08/04 06:41:40;;;;;;;2.33;1.50;;;;;;;26.87;42.17;97867.41;5033679;28;20211;-70
2021/08/04 06:44:07;;;;;;;1.47;1.37;;;;;;;27.04;42.02;97874.94;5042079;28;20292;-70
2021/08/04 06:46:35;;;;;;;3.20;1.50;;;;;;;26.75;43.28;97871.78;5044397;28;20233;-72
2021/08/04 06:49:04;;;;;;;2.47;1.40;;;;;;;25.73;46.76;97873.25;5033479;28;20589;-72
2021/08/04 06:51:32;;;;;;;2.20;1.40;;;;;;;26.53;42.92;97877.16;5032356;28;20202;-69
2021/08/04 06:53:59;;;;;;;2.07;1.30;;;;;;;26.54;40.76;97884.25;5032834;28;20210;-72
2021/08/04 06:56:27;;;;;;;3.53;2.07;;;;;;;25.93;40.88;97883.84;5025240;28;20227;-72
2021/08/04 06:58:54;;;;;;;7.03;2.40;;;;;;;26.43;42.91;97877.38;5041077;28;20202;-73
2021/08/04 07:01:21;;;;;;;4.53;1.90;;;;;;;26.22;41.55;97881.63;5030207;28;20207;-74
2021/08/04 07:03:49;;;;;;;3.53;2.03;;;;;;;26.10;42.88;97873.13;5033480;28;20211;-71
2021/08/04 07:06:17;;;;;;;2.33;1.80;;;;;;;26.39;41.11;97879.09;5028658;28;20305;-74
2021/08/04 07:08:45;;;;;;;2.77;1.90;;;;;;;26.15;41.61;97876.56;5034698;28;20210;-72
2021/08/04 07:11:12;;;;;;;4.70;2.60;;;;;;;26.00;40.95;97878.78;5031280;28;20221;-73
2021/08/04 07:13:40;;;;;;;2.60;1.70;;;;;;;24.92;43.59;97884.66;5038112;28;20273;-70
2021/08/04 07:16:08;;;;;;;2.93;2.27;;;;;;;24.27;46.52;97888.22;5040215;28;20229;-69
2021/08/04 07:18:35;;;;;;;2.60;1.80;;;;;;;25.20;46.26;97880.16;5046407;28;20213;-73
2021/08/04 07:21:02;;;;;;;2.33;1.77;;;;;;;24.24;49.96;97863.47;5035521;28;20214;-70
2021/08/04 07:23:31;;;;;;;1.70;1.60;;;;;;;25.76;46.22;97864.44;5038183;28;20671;-70
2021/08/04 07:25:58;;;;;;;1.67;1.30;;;;;;;26.10;43.98;97856.72;5041404;28;20234;-69
2021/08/04 07:28:26;;;;;;;2.07;1.57;;;;;;;25.81;42.19;97878.84;5039481;28;20205;-69
2021/08/04 07:30:53;;;;;;;4.23;2.40;;;;;;;25.38;45.08;97868.41;5040125;28;20203;-70
2021/08/04 07:33:20;;;;;;;5.93;2.27;;;;;;;24.79;46.15;97860.84;5046201;28;20213;-69
2021/08/04 07:35:47;;;;;;;4.70;1.70;;;;;;;26.18;43.46;97875.16;5031382;28;20420;-69
2021/08/04 07:38:15;;;;;;;3.47;2.20;;;;;;;26.57;42.05;97878.19;5032338;28;20230;-69
2021/08/04 07:40:43;;;;;;;4.13;1.63;;;;;;;25.84;45.12;97866.50;5032169;28;20225;-70
2021/08/04 07:43:11;;;;;;;2.60;1.57;;;;;;;26.43;41.43;97877.38;5046253;28;20202;-69
2021/08/04 07:45:38;;;;;;;1.93;1.40;;;;;;;27.07;38.92;97872.38;5033155;28;20234;-68
2021/08/04 07:48:06;;;;;;;2.20;1.53;;;;;;;26.86;39.82;97873.19;5044093;28;20209;-69
2021/08/04 07:50:33;;;;;;;2.20;1.63;;;;;;;27.16;39.82;97876.00;5027773;28;20207;-69
2021/08/04 07:53:00;;;;;;;2.97;1.90;;;;;;;25.90;41.09;97870.75;5032758;28;20202;-69
2021/08/04 07:55:28;;;;;;;3.47;1.60;;;;;;;25.67;43.01;97868.97;5036896;28;20434;-70
2021/08/04 07:57:56;;;;;;;4.53;2.03;;;;;;;26.53;41.02;97867.03;5038438;28;20226;-70
2021/08/04 08:00:23;;;;;;;3.93;2.00;;;;;;;27.49;39.53;97863.72;5039330;28;20214;-70
2021/08/04 08:02:51;;;;;;;3.43;1.67;;;;;;;26.97;39.60;97866.34;5045896;28;20206;-70
2021/08/04 08:05:18;;;;;;;2.50;1.23;;;;;;;27.95;37.88;97863.34;5026814;28;20254;-69
2021/08/04 08:07:46;;;;;;;3.07;1.47;;;;;;;28.07;37.50;97863.59;5032725;28;20206;-72
2021/08/04 08:10:14;;;;;;;4.83;1.70;;;;;;;26.72;40.41;97864.19;5041379;28;20205;-70
2021/08/04 08:12:42;;;;;;;1.63;1.27;;;;;;;27.01;39.51;97859.13;5040631;28;20203;-73
2021/08/04 08:15:12;;;;;;;1.90;1.47;;;;;;;27.69;37.92;97862.38;5039578;28;20642;-73
2021/08/04 08:17:40;;;;;;;1.83;1.50;;;;;;;28.25;36.95;97865.25;5045826;28;20260;-76
2021/08/04 08:20:08;;;;;;;1.87;1.40;;;;;;;28.30;36.26;97867.84;5031175;28;20211;-76
2021/08/04 08:22:35;;;;;;;3.67;2.20;;;;;;;28.18;35.93;97871.19;5027374;28;20213;-76
2021/08/04 08:25:03;;;;;;;1.93;1.37;;;;;;;27.79;36.69;97875.84;5044083;28;20224;-76
2021/08/04 08:27:30;;;;;;;2.30;1.83;;;;;;;27.97;36.72;97883.06;5038820;28;20203;-73
2021/08/04 08:29:57;;;;;;;2.57;1.80;;;;;;;27.97;37.02;97874.84;5042302;28;20206;-75
2021/08/04 08:32:26;;;;;;;7.30;2.73;;;;;;;27.06;38.80;97865.28;5035473;28;20223;-74
2021/08/04 08:34:54;;;;;;;5.80;2.80;;;;;;;27.75;37.71;97875.66;5029903;28;20227;-73
2021/08/04 08:37:21;;;;;;;3.60;2.40;;;;;;;28.32;35.94;97880.13;5038422;28;20317;-73
2021/08/04 08:39:48;;;;;;;3.70;1.90;;;;;;;28.42;36.26;97885.38;5045777;28;20572;-72
2021/08/04 08:42:19;;;;;;;3.17;1.73;;;;;;;26.36;40.70;97864.09;5039455;28;20294;-73
2021/08/04 08:44:46;;;;;;;2.67;1.60;;;;;;;27.45;38.42;97868.19;5048025;28;20301;-69
2021/08/04 08:47:14;;;;;;;2.87;1.60;;;;;;;27.19;38.45;97874.59;5023382;28;20572;-70
2021/08/04 08:49:44;;;;;;;3.70;1.83;;;;;;;26.67;40.06;97867.03;5032889;28;20209;-72
2021/08/04 08:52:12;;;;;;;2.50;1.87;;;;;;;27.48;39.04;97873.06;5036919;28;20200;-73
2021/08/04 08:54:39;;;;;;;3.60;2.00;;;;;;;27.62;38.92;97867.50;5036019;28;20226;-72
2021/08/04 08:57:07;;;;;;;2.90;2.13;;;;;;;29.11;35.81;97875.31;5032947;28;20696;-71
2021/08/04 08:59:34;;;;;;;4.00;1.80;;;;;;;29.45;34.47;97869.81;5039879;28;20204;-72
2021/08/04 09:02:04;;;;;;;2.53;1.70;;;;;;;30.02;33.51;97871.97;5032349;28;20209;-72
2021/08/04 09:04:37;;;;;;;3.23;1.70;;;;;;;30.03;34.75;97857.06;5035468;28;20206;-71
2021/08/04 09:07:09;;;;;;;2.85;1.70;;;;;;;29.65;34.44;97863.66;5029677;28;20204;-70
2021/08/04 09:09:36;;;;;;;3.00;1.60;;;;;;;28.32;35.89;97860.91;5032055;28;20210;-70
2021/08/04 09:12:14;;;;;;;3.13;1.70;;;;;;;28.25;36.39;97849.59;5042757;28;20214;-73
2021/08/04 09:14:43;;;;;;;2.22;1.50;;;;;;;28.40;35.76;97853.88;5040945;28;20221;-74
2021/08/04 09:17:12;;;;;;;5.13;1.77;;;;;;;27.78;37.10;97853.09;5033668;28;20610;-70
2021/08/04 09:19:42;;;;;;;2.30;1.50;;;;;;;27.95;36.69;97838.66;5032920;28;20663;-74
2021/08/04 09:22:16;;;;;;;4.70;1.70;;;;;;;29.59;32.57;97853.97;5034421;28;20554;-72
2021/08/04 09:25:10;;;;;;;2.60;1.50;;;;;;;29.40;34.99;97835.03;5050168;28;20225;-73
2021/08/04 09:27:43;;;;;;;1.85;1.50;;;;;;;29.90;33.85;97825.06;5044822;28;20191;-73
2021/08/04 09:30:12;;;;;;;3.17;1.67;;;;;;;29.41;34.07;97825.66;5044847;28;20653;-76
2021/08/04 09:32:40;;;;;;;2.25;1.70;;;;;;;27.72;36.10;97834.34;5044835;28;20670;-74
2021/08/04 09:35:10;;;;;;;3.05;1.98;;;;;;;29.06;34.46;97828.75;5029917;28;20221;-73
2021/08/04 09:37:39;;;;;;;3.17;1.60;;;;;;;28.37;36.74;97824.28;5040815;28;20232;-74
2021/08/04 09:40:08;;;;;;;2.10;1.50;;;;;;;26.11;41.26;97812.66;5051605;28;20201;-72
2021/08/04 09:42:44;;;;;;;3.00;1.73;;;;;;;26.83;39.29;97819.84;5048650;28;20664;-76
2021/08/04 09:45:12;;;;;;;3.40;1.60;;;;;;;26.61;39.18;97824.47;5046995;28;20234;-73
2021/08/04 09:47:54;;;;;;;3.07;1.23;;;;;;;26.68;40.43;97824.84;5043795;28;20197;-71
2021/08/04 09:50:21;;;;;;;3.33;1.70;;;;;;;27.25;39.33;97818.56;5036357;28;20249;-73
2021/08/04 09:52:54;;;;;;;4.57;1.80;;;;;;;26.07;41.57;97808.91;5041227;28;20218;-72
2021/08/04 09:55:23;;;;;;;2.70;1.60;;;;;;;27.25;40.33;97821.28;5039651;28;20234;-70
2021/08/04 09:57:52;;;;;;;2.67;1.77;;;;;;;27.03;40.75;97805.66;5048416;28;20222;-69
2021/08/04 10:00:20;;;;;;;2.20;1.70;;;;;;;26.56;40.46;97805.41;5033955;28;20214;-70
2021/08/04 10:02:48;;;;;;;4.33;1.70;;;;;;;25.60;42.29;97806.53;5035407;28;20237;-70
2021/08/04 10:05:20;;;;;;;5.27;1.60;;;;;;;25.60;42.61;97806.53;5024942;28;20589;-71
2021/08/04 10:08:09;;;;;;;2.40;1.37;;;;;;;25.52;43.44;97803.66;5040435;28;20691;-73
2021/08/04 10:10:39;;;;;;;2.20;1.70;;;;;;;25.54;42.54;97807.69;5038243;28;20273;-71
2021/08/04 10:13:08;;;;;;;3.77;1.77;;;;;;;26.26;41.70;97804.13;5029162;28;20564;-72
2021/08/04 10:15:41;;;;;;;5.60;2.53;;;;;;;27.29;39.75;97803.09;5041347;28;20286;-72
2021/08/04 10:18:11;;;;;;;2.43;1.33;;;;;;;27.55;39.77;97807.63;5033415;28;20218;-72
2021/08/04 10:20:40;;;;;;;2.33;1.47;;;;;;;27.12;38.79;97809.25;5040768;28;20215;-71
2021/08/04 10:23:12;;;;;;;3.70;1.90;;;;;;;27.68;37.70;97803.16;5043390;28;20202;-70
2021/08/04 10:25:40;;;;;;;1.97;1.67;;;;;;;29.00;35.44;97797.09;5047745;28;20227;-72
2021/08/04 10:28:07;;;;;;;3.50;1.67;;;;;;;29.31;34.74;97794.94;5042226;28;20206;-74
2021/08/04 10:30:34;;;;;;;3.40;1.77;;;;;;;27.78;36.74;97795.50;5040761;28;20208;-69
2021/08/04 10:33:03;;;;;;;3.53;1.60;;;;;;;26.80;39.37;97790.31;5035032;28;20199;-69
2021/08/04 10:35:31;;;;;;;4.33;1.90;;;;;;;28.28;37.90;97783.06;5025753;28;20255;-73
2021/08/04 10:37:59;;;;;;;2.20;1.70;;;;;;;26.94;38.96;97779.28;5042279;28;20772;-72
2021/08/04 10:40:29;;;;;;;5.73;1.90;;;;;;;27.18;39.25;97777.09;5042513;28;20204;-73
2021/08/04 10:42:56;;;;;;;4.27;1.87;;;;;;;26.85;40.19;97772.97;5030828;28;20210;-77
2021/08/04 10:45:34;;;;;;;3.67;1.80;;;;;;;26.46;40.76;97770.03;5031494;28;20229;-74
2021/08/04 10:48:24;;;;;;;2.70;1.80;;;;;;;27.35;38.87;97778.00;5051540;28;20203;-71
2021/08/04 10:51:14;;;;;;;2.00;1.63;;;;;;;26.45;39.60;97780.16;5029998;28;20609;-72
2021/08/04 10:54:18;;;;;;;2.03;1.53;;;;;;;27.53;38.37;97771.50;5047991;28;20286;-72
2021/08/04 10:57:22;;;;;;;2.37;1.67;;;;;;;28.56;36.10;97780.88;5025463;28;20218;-71
2021/08/04 10:59:50;;;;;;;2.58;1.83;;;;;;;29.48;33.73;97783.91;5047555;28;20243;-71
2021/08/04 11:02:34;;;;;;;2.55;1.58;;;;;;;27.80;36.37;97776.81;5040953;28;20657;-74
2021/08/04 11:05:01;;;;;;;2.92;1.83;;;;;;;27.77;38.88;97763.69;5048161;28;20243;-71
2021/08/04 11:07:30;;;;;;;5.07;1.67;;;;;;;28.52;37.03;97768.94;5050701;28;20237;-71
2021/08/04 11:10:00;;;;;;;4.25;1.90;;;;;;;29.05;34.79;97772.19;5051708;28;20288;-72
2021/08/04 11:12:57;;;;;;;2.72;1.77;;;;;;;27.41;37.73;97774.00;5044845;28;20643;-73
2021/08/04 11:15:33;;;;;;;3.00;1.50;;;;;;;26.71;39.19;97770.25;4952572;28;20314;-68
2021/08/04 11:18:09;;;;;;;2.70;1.60;;;;;;;26.74;40.29;97755.13;5021097;28;20222;-72
2021/08/04 11:20:39;;;;;;;3.63;1.90;;;;;;;26.84;39.93;97749.41;5036145;28;20253;-75
2021/08/04 11:23:09;;;;;;;2.77;1.90;;;;;;;28.20;37.07;97752.84;5028511;28;20680;-72
2021/08/04 11:25:42;;;;;;;2.53;1.60;;;;;;;26.20;41.70;97742.41;5033288;28;20595;-72
2021/08/04 11:28:12;;;;;;;3.60;1.80;;;;;;;27.17;40.13;97740.66;5026645;28;20205;-72
2021/08/04 11:30:42;;;;;;;2.60;1.80;;;;;;;27.42;38.74;97750.16;5027740;28;20619;-78
2021/08/04 11:33:29;;;;;;;4.70;1.90;;;;;;;27.23;39.25;97741.34;5030476;28;20665;-77
2021/08/04 11:36:26;;;;;;;3.13;2.00;;;;;;;29.01;35.56;97746.47;5047286;28;20307;-72
2021/08/04 11:39:08;;;;;;;3.55;1.90;;;;;;;29.18;34.81;97763.75;5043419;28;20287;-71
2021/08/04 11:41:52;;;;;;;3.07;1.87;;;;;;;28.03;37.02;97756.38;5037225;28;20243;-71
2021/08/04 11:44:27;;;;;;;2.33;1.77;;;;;;;29.62;33.96;97757.84;5029634;28;20198;-71